KRIV/RIV METAR and TAF weather

Enter ICAO airport designator
Station Type Date Time Source
KRIV METAR 2022/01/26 13:58 UTC NOAA

KRIV 261358Z 33005KT 10SM CLR 07/M10 A3011 RMK AO2A SLP195 T00671101


Station Type Date Time Source
KRIV Decoded METAR 2022/01/26 13:58 UTC NOAA

Riverside / March Air Force Base, CA, United States (KRIV) 33-54N 117-15W 468M
Jan 26, 2022 - 08:58 AM EST / 2022.01.26 1358 UTC
Wind: from the NNW (330 degrees) at 6 MPH (5 KT):0
Visibility: 10 mile(s):0
Sky conditions: clear
Temperature: 44.1 F (6.7 C)
Dew Point: 13.8 F (-10.1 C)
Relative Humidity: 28%
Pressure (altimeter): 30.11 in. Hg (1019 hPa)
ob: KRIV 261358Z 33005KT 10SM CLR 07/M10 A3011 RMK AO2A SLP195 T00671101
cycle: 14

Station Type Date Time Source
KRIV TAF 2022/01/26 12:28 UTC NOAA

TAF KRIV 261210Z 2612/2718 VRB06KT 9999 SKC 520207 QNH3007INS
BECMG 2616/2617 06007KT 9999 SCT250 520009 QNH3006INS WND 030V090
TEMPO 2617/2620 06010G15KT
BECMG 2620/2621 VRB05KT 9999 SCT250 QNH3003INS
TEMPO 2623/2702 32007KT
BECMG 2706/2707 VRB03KT 9999 SKC QNH3009INS TX21/2622Z TN01/2613Z

Example: see airport list